ADDS METAR Data INFO
IDs: Format: Raw Decoded Include TAF

Data at: 0631 UTC 15 Dec 2017

KFFL 150615Z AUTO 23006KT 10SM OVC046 M03/M07 A3005 RMK AO2 PWINO
KFFL 150555Z AUTO 22006KT 10SM OVC046 M03/M07 A3005 RMK AO2 PWINO
KFFL 150535Z AUTO 22005KT 10SM BKN043 BKN050 OVC085 M04/M08 A3005 RMK AO2 PWINO
KFFL 150515Z AUTO 22006KT 10SM FEW028 BKN042 OVC085 M03/M08 A3006 RMK AO2 PWINO
KFFL 150455Z AUTO 22007KT 10SM FEW043 OVC085 M03/M08 A3007 RMK AO2 PWINO
KFFL 150435Z AUTO 23006KT 10SM FEW030 FEW065 OVC080 M03/M08 A3007 RMK AO2 PWINO
KFFL 150415Z AUTO 22005KT 10SM BKN032 OVC085 M03/M08 A3007 RMK AO2 PWINO
KFFL 150355Z AUTO 23005KT 10SM OVC033 M03/M08 A3007 RMK AO2 PWINO
KFFL 150335Z AUTO 21004KT 10SM OVC033 M03/M08 A3007 RMK AO2 PWINO
KFFL 150315Z AUTO 22004KT 10SM OVC033 M03/M08 A3008 RMK AO2 PWINO
KFFL 150255Z AUTO 00000KT 10SM OVC033 M03/M08 A3008 RMK AO2 PWINO
KFFL 150235Z AUTO 19004KT 10SM OVC030 M03/M08 A3008 RMK AO2 PWINO
KFFL 150215Z AUTO 20004KT 10SM OVC029 M03/M08 A3009 RMK AO2 PWINO
KFFL 150155Z AUTO 00000KT 10SM OVC028 M03/M08 A3009 RMK AO2 PWINO
KFFL 150135Z AUTO 00000KT 10SM OVC028 M03/M08 A3009 RMK AO2 PWINO
KFFL 150115Z AUTO 00000KT 10SM OVC028 M03/M08 A3010 RMK AO2 PWINO
KFFL 150055Z AUTO 00000KT 10SM OVC027 M03/M09 A3010 RMK AO2 PWINO
KFFL 150035Z AUTO 00000KT 10SM OVC027 M03/M08 A3009 RMK AO2 PWINO
KFFL 150015Z AUTO 00000KT 10SM OVC027 M03/M08 A3009 RMK AO2 PWINO
KFFL 142355Z AUTO 35004KT 10SM OVC027 M03/M08 A3009 RMK AO2 PWINO
KFFL 142335Z AUTO 00000KT 10SM OVC026 M02/M08 A3009 RMK AO2 PWINO
KFFL 142315Z AUTO 27003KT 10SM OVC026 M02/M08 A3009 RMK AO2 PWINO
KFFL 142255Z AUTO 00000KT 10SM OVC026 M03/M09 A3008 RMK AO2 PWINO
KFFL 142235Z AUTO 29003KT 10SM OVC026 M02/M09 A3008 RMK AO2 PWINO
KFFL 142215Z AUTO 29004KT 10SM OVC025 M02/M09 A3008 RMK AO2 PWINO
KFFL 142155Z AUTO 29004KT 10SM OVC025 M02/M09 A3007 RMK AO2 PWINO
KFFL 142135Z AUTO 27005KT 10SM OVC025 M02/M09 A3007 RMK AO2 PWINO
KFFL 142115Z AUTO 28005KT 10SM OVC025 M02/M09 A3007 RMK AO2 PWINO
KFFL 142055Z AUTO 29007KT 10SM OVC025 M03/M09 A3007 RMK AO2 PWINO
KFFL 142035Z AUTO 31006KT 10SM OVC025 M03/M09 A3007 RMK AO2 PWINO
KFFL 142015Z AUTO 26004KT 10SM OVC024 M03/M09 A3007 RMK AO2 PWINO
KFFL 141955Z AUTO 26006KT 10SM OVC024 M03/M09 A3007 RMK AO2 PWINO
KFFL 141935Z AUTO 00000KT 10SM OVC023 M03/M10 A3007 RMK AO2 PWINO
KFFL 141915Z AUTO 30004KT 10SM OVC023 M03/M10 A3007 RMK AO2 PWINO
KFFL 141855Z AUTO 00000KT 10SM OVC023 M03/M10 A3007 RMK AO2 PWINO
KFFL 141835Z AUTO 29004KT 10SM OVC023 M03/M10 A3007 RMK AO2 PWINO
KFFL 141815Z AUTO 27004KT 10SM OVC023 M03/M10 A3008 RMK AO2 PWINO
KFFL 141755Z AUTO 28004KT 10SM OVC023 M03/M10 A3008 RMK AO2 PWINO
KFFL 141735Z AUTO 00000KT 10SM OVC024 M03/M09 A3008 RMK AO2 PWINO
KFFL 141715Z AUTO 36003KT 10SM OVC024 M04/M10 A3009 RMK AO2 PWINO
KFFL 141655Z AUTO 00000KT 10SM OVC024 M04/M10 A3010 RMK AO2 PWINO
KFFL 141635Z AUTO 03005KT 10SM OVC025 M04/M10 A3011 RMK AO2 PWINO
KFFL 141615Z AUTO 03004KT 10SM OVC025 M04/M09 A3011 RMK AO2 PWINO
KFFL 141555Z AUTO 02004KT 10SM OVC025 M05/M10 A3010 RMK AO2 PWINO
KFFL 141535Z AUTO 02004KT 10SM OVC025 M05/M10 A3010 RMK AO2 PWINO
KFFL 141515Z AUTO 03005KT 10SM OVC025 M05/M10 A3009 RMK AO2 PWINO
KFFL 141455Z AUTO 01006KT 10SM OVC025 M05/M10 A3009 RMK AO2 PWINO
KFFL 141435Z AUTO 02006KT 10SM OVC025 M05/M10 A3009 RMK AO2 PWINO
KFFL 141415Z AUTO 01006KT 10SM OVC025 M06/M10 A3007 RMK AO2 PWINO
KFFL 141355Z AUTO 01007KT 10SM OVC025 M06/M10 A3007 RMK AO2 PWINO
KFFL 141335Z AUTO 36007KT 10SM OVC025 M06/M10 A3006 RMK AO2 PWINO
KFFL 141315Z AUTO 36006KT 10SM OVC025 M06/M10 A3005 RMK AO2 PWINO
KFFL 141255Z AUTO 34004KT 10SM OVC024 M06/M10 A3005 RMK AO2 PWINO
KFFL 141235Z AUTO 33004KT 10SM OVC025 M07/M10 A3005 RMK AO2 PWINO
KFFL 141215Z AUTO 32005KT 10SM OVC026 M07/M11 A3004 RMK AO2 PWINO
KFFL 141155Z AUTO 32005KT 10SM OVC025 M07/M11 A3002 RMK AO2 PWINO
KFFL 141135Z AUTO 33005KT 10SM OVC026 M07/M11 A3001 RMK AO2 PWINO
KFFL 141115Z AUTO 35004KT 10SM OVC027 M07/M11 A3001 RMK AO2 PWINO
KFFL 141055Z AUTO 36006KT 10SM OVC026 M07/M11 A3000 RMK AO2 PWINO
KFFL 141035Z AUTO 35006KT 10SM OVC026 M07/M10 A3000 RMK AO2 PWINO
KFFL 141015Z AUTO 36007KT 10SM OVC027 M06/M10 A2999 RMK AO2 PWINO
KFFL 140955Z AUTO 01006KT 10SM OVC028 M05/M09 A2999 RMK AO2 PWINO
KFFL 140935Z AUTO 35007KT 10SM OVC027 M04/M09 A2999 RMK AO2 PWINO
KFFL 140915Z AUTO 35007KT 10SM OVC028 M04/M09 A2999 RMK AO2 PWINO
KFFL 140855Z AUTO 35007KT 10SM OVC027 M03/M09 A2998 RMK AO2 PWINO
KFFL 140835Z AUTO 34008KT 10SM OVC027 M03/M09 A2998 RMK AO2 PWINO
KFFL 140815Z AUTO 36013KT 10SM OVC026 M03/M09 A2997 RMK AO2 PWINO
KFFL 140755Z AUTO 36011KT 10SM OVC026 M03/M09 A2996 RMK AO2 PWINO
KFFL 140735Z AUTO 36012KT 10SM OVC023 M03/M08 A2995 RMK AO2 PWINO
KFFL 140715Z AUTO 01011KT 10SM OVC022 M03/M08 A2995 RMK AO2 PWINO
KFFL 140655Z AUTO 35012G17KT 10SM OVC022 M03/M08 A2994 RMK AO2 PWINO
KFFL 140635Z AUTO 33014KT 10SM OVC024 M02/M08 A2994 RMK AO2 PWINO
KFFL 140615Z AUTO 36011KT 10SM OVC023 M02/M08 A2993 RMK AO2 PWINO
KFFL 140555Z AUTO 36009KT 10SM OVC023 M02/M07 A2992 RMK AO2 PWINO
KFFL 140535Z AUTO 35015KT 10SM BKN023 OVC028 M02/M07 A2991 RMK AO2 PWINO
KFFL 140515Z AUTO 34011KT 10SM OVC028 M01/M06 A2990 RMK AO2 PWINO
KFFL 140455Z AUTO 35015KT 10SM SCT022 OVC029 M01/M06 A2989 RMK AO2 PWINO
KFFL 140435Z AUTO 35014G20KT 10SM OVC022 M01/M05 A2988 RMK AO2 PWINO
KFFL 140415Z AUTO 34016G22KT 10SM OVC022 M00/M05 A2987 RMK AO2 PWINO
KFFL 140355Z AUTO 34012G18KT 10SM OVC022 M00/M05 A2986 RMK AO2 PWINO
KFFL 140335Z AUTO 33018G24KT 10SM BKN023 OVC030 00/M05 A2985 RMK AO2 PWINO
KFFL 140315Z AUTO 33017G23KT 10SM OVC023 00/M05 A2984 RMK AO2 PWINO
KFFL 140255Z AUTO 33022G27KT 10SM OVC023 00/M05 A2982 RMK AO2 PWINO
KFFL 140235Z AUTO 33020G30KT 10SM OVC024 01/M05 A2982 RMK AO2 PWINO
KFFL 140215Z AUTO 32024G30KT 10SM OVC027 01/M05 A2980 RMK AO2 PWINO
KFFL 140155Z AUTO 32024G31KT 10SM OVC027 01/M05 A2980 RMK AO2 PWINO
KFFL 140135Z AUTO 32021G33KT 10SM BKN028 OVC033 01/M05 A2979 RMK AO2 PWINO
KFFL 140115Z AUTO 32030G36KT 10SM SCT028 BKN033 OVC040 02/M04 A2977 RMK AO2 PWINO
KFFL 140055Z AUTO 32021G32KT 10SM BKN032 OVC040 02/M04 A2975 RMK AO2 PWINO
KFFL 140035Z AUTO 32022G34KT 10SM OVC033 02/M04 A2974 RMK AO2 PWINO
KFFL 140015Z AUTO 31021G31KT 10SM BKN029 OVC034 02/M04 A2973 RMK AO2 PWINO
KFFL 132355Z AUTO 31025G34KT 10SM OVC030 02/M04 A2972 RMK AO2 PWINO
KFFL 132335Z AUTO 31023G35KT 10SM OVC030 02/M04 A2971 RMK AO2 PWINO
KFFL 132315Z AUTO 30027G33KT 10SM OVC027 02/M04 A2969 RMK AO2 PWINO
KFFL 132255Z AUTO 31027G35KT 10SM OVC026 02/M03 A2968 RMK AO2 PWINO
KFFL 132235Z AUTO 30019G27KT 10SM OVC024 02/M03 A2968 RMK AO2 PWINO
KFFL 132215Z AUTO 31020G31KT 10SM OVC024 02/M03 A2966 RMK AO2 PWINO
KFFL 132155Z AUTO 31022G40KT 10SM OVC024 03/M03 A2965 RMK AO2 PWINO
KFFL 132135Z AUTO 31017G27KT 10SM OVC023 02/M02 A2964 RMK AO2 PWINO
KFFL 132115Z AUTO 31029G40KT 10SM OVC021 03/M02 A2961 RMK AO2 PWINO
KFFL 132055Z AUTO 30025G37KT 10SM OVC019 03/M02 A2960 RMK AO2 PWINO
KFFL 132035Z AUTO 31021G27KT 10SM OVC018 03/M01 A2959 RMK AO2 PWINO
KFFL 132015Z AUTO 32019G32KT 10SM OVC017 03/M00 A2958 RMK AO2 PWINO
KFFL 131955Z AUTO 31021G33KT 10SM OVC017 04/00 A2956 RMK AO2 PWINO
KFFL 131935Z AUTO 31023G31KT 10SM OVC018 04/01 A2954 RMK AO2 PWINO
KFFL 131915Z AUTO 31022G33KT 10SM OVC018 04/01 A2954 RMK AO2 PWINO
KFFL 131855Z AUTO 31028G36KT 10SM OVC016 04/01 A2952 RMK AO2 PWINO
KFFL 131835Z AUTO 30021G33KT 10SM OVC016 04/01 A2952 RMK AO2 PWINO